Gary, Indiana
Current Conditions -  °F | °C
As of 3:45 PM on Monday 24 Nov 2014 (Local Time) from KGYY Reporting Station
Overcast Overcast  
Wind Chill: 19°   Ceiling: 1700
Heat Index: 32°   Visibility: 10mi
Dew Point: 28°   Wind: 23mph
Humidity: 87%   Direction: 250°WSW
Pressure: 29.57"   Gusts: 46mph
Location:  41.6°N, 87.34°W
Report Text: KGYY 242145Z 25020G40KT 10SM OVC017 00/M02 A2957
Loading
Personal Weather Stations






























Interactive Weather Map New forecast layout! Learn more

10-Day Weather Forecast

Advertisements
Track Severe Weather on mobile